Latest Weather Observations for Kiama

IDN60801

Issued at 7:43 pm EST Monday 4 July 2022 (issued every 10 minutes, with the page automatically refreshed every 10 minutes)

About weather observations | Map of weather stations | Latest weather observations for NSW | Other Formats
Station Details ID: 068242 Name: KIAMA (BOMBO HEADLAND) Lat: -34.65 Lon: 150.86 Height: 15.5 m
Data from the previous 72 hours. | See also: Recent months at Kiama
Date/Time
EST
Temp
°C
App
Temp
°C
Dew
Point
°C
Rel
Hum
%
Delta-T
°C
Wind Press
QNH
hPa
Press
MSL
hPa
Rain since
9am
mm
Dir  Spd
km/h
Gust
km/h
Spd
kts
Gust
kts
04/07:30pm 13.5 6.0 12.2 92 0.7 SSW 43 57 23 31 - - 65.8
04/07:17pm 13.4 5.7 12.1 92 0.7 SSW 44 67 24 36 - - 64.8
04/07:00pm 13.2 5.1 11.9 92 0.7 SSW 46 61 25 33 - - 63.8
04/06:44pm 13.1 5.3 11.8 92 0.7 SSW 44 65 24 35 - - 61.6
04/06:30pm 13.3 6.1 12.0 92 0.7 SSW 41 54 22 29 - - 58.6
04/06:03pm 13.6 6.1 12.2 91 0.8 S 43 63 23 34 - - 52.2
04/06:00pm 13.6 5.9 12.2 91 0.8 SSW 44 59 24 32 - - 51.6
04/05:30pm 14.0 6.6 12.6 91 0.8 SSW 43 57 23 31 - - 46.6
04/05:07pm 13.9 4.8 12.5 91 0.8 SSW 52 72 28 39 - - 44.8
04/05:00pm 13.9 4.0 12.5 91 0.8 SSW 56 72 30 39 - - 44.6
04/04:30pm 14.0 5.0 12.7 92 0.7 SSW 52 74 28 40 - - 42.6
04/04:00pm 14.0 4.9 12.6 91 0.8 SSW 52 70 28 38 - - 37.8
04/03:31pm 14.0 4.2 12.6 91 0.8 SSW 56 74 30 40 - - 34.4
04/03:30pm 14.0 4.0 12.6 91 0.8 SSW 57 74 31 40 - - 34.2
04/03:12pm 14.4 4.5 13.0 91 0.8 SSW 57 80 31 43 - - 32.0
04/03:00pm 14.6 4.7 13.0 90 0.9 S 57 76 31 41 - - 30.4
04/02:30pm 14.8 4.7 13.5 92 0.7 S 59 82 32 44 - - 27.8
04/02:01pm 14.3 4.4 12.9 91 0.8 SSW 57 80 31 43 - - 25.4
04/02:00pm 14.3 4.4 12.9 91 0.8 S 57 74 31 40 - - 25.4
04/01:32pm 14.9 5.3 13.4 91 0.8 S 56 74 30 40 - - 21.6
04/01:30pm 14.9 5.1 13.4 91 0.8 S 57 74 31 40 - - 21.4
04/01:00pm 14.7 4.8 13.1 90 0.9 S 57 78 31 42 - - 18.6
04/12:30pm 15.2 5.7 13.6 90 0.9 S 56 76 30 41 - - 15.8
04/12:09pm 15.1 6.3 13.5 90 0.9 SSW 52 72 28 39 - - 14.6
04/12:00pm 14.8 5.0 13.2 90 0.9 S 57 70 31 38 - - 14.2
04/11:30am 15.4 6.3 13.8 90 0.9 S 54 78 29 42 - - 11.4
04/11:00am 15.1 5.3 13.3 89 1.0 S 57 80 31 43 - - 10.0
04/10:41am 15.2 6.5 13.6 90 0.9 S 52 72 28 39 - - 8.0
04/10:30am 15.2 6.1 13.6 90 0.9 S 54 72 29 39 - - 7.2
04/10:00am 15.0 4.8 13.2 89 1.0 S 59 80 32 43 - - 4.8
04/09:30am 15.5 5.7 13.3 87 1.2 S 57 78 31 42 - - 1.8
04/09:00am 15.8 6.1 13.5 86 1.3 S 57 80 31 43 - - 18.4
04/08:59am 15.7 5.9 13.2 85 1.4 S 57 80 31 43 - - 18.2
04/08:30am 15.9 5.7 13.2 84 1.5 SSE 59 74 32 40 - - 17.4
04/08:13am 16.1 6.3 13.4 84 1.5 SSE 57 76 31 41 - - 17.0
04/08:00am 16.6 6.8 13.3 81 1.8 SSE 57 72 31 39 - - 16.2
04/07:40am 16.3 7.0 13.0 81 1.8 SSE 54 76 29 41 - - 16.2
04/07:30am 16.9 7.3 13.4 80 2.0 SSE 56 67 30 36 - - 15.8
04/07:00am 16.8 7.2 13.3 80 2.0 SSE 56 69 30 37 - - 15.8
04/06:30am 16.2 6.5 12.9 81 1.8 SSE 56 67 30 36 - - 15.6
04/06:00am 16.8 7.6 13.3 80 2.0 SSE 54 67 29 36 - - 15.6
04/05:30am 17.1 7.9 13.4 79 2.1 SSE 54 61 29 33 - - 15.6
04/05:05am 16.8 8.9 13.9 83 1.6 SSE 48 70 26 38 - - 15.6
04/05:00am 16.8 9.3 13.9 83 1.6 SSE 46 57 25 31 - - 15.6
04/04:30am 16.1 7.7 13.6 85 1.4 SSE 50 59 27 32 - - 15.4
04/04:00am 15.7 7.3 13.5 87 1.2 SSE 50 69 27 37 - - 15.0
04/03:46am 15.8 7.4 13.6 87 1.2 SSE 50 69 27 37 - - 14.4
04/03:30am 16.0 8.8 13.7 86 1.3 SSE 44 56 24 30 - - 13.8
04/03:00am 16.4 7.9 13.3 82 1.7 S 50 63 27 34 - - 13.4
04/02:30am 16.6 9.1 13.9 84 1.5 SSE 46 56 25 30 - - 13.4
04/02:00am 15.9 8.9 13.7 87 1.2 SSE 43 54 23 29 - - 13.4
04/01:30am 15.5 8.2 13.3 87 1.2 SSE 44 57 24 31 - - 12.0
04/01:08am 15.9 9.1 13.2 84 1.5 SE 41 59 22 32 - - 10.8
04/01:00am 16.4 9.4 13.7 84 1.5 SSE 43 54 23 29 - - 10.8
04/12:30am 15.2 7.8 12.5 84 1.5 SE 43 61 23 33 - - 10.6
04/12:29am 15.4 8.1 12.7 84 1.5 SE 43 61 23 33 - - 10.4
04/12:00am 15.7 7.1 12.8 83 1.6 SSE 50 63 27 34 - - 10.0
 
Date/Time
EST
Temp
°C
App
Temp
°C
Dew
Point
°C
Rel
Hum
%
Delta-T
°C
Wind Press
QNH
hPa
Press
MSL
hPa
Rain since
9am
mm
Dir  Spd
km/h
Gust
km/h
Spd
kts
Gust
kts
03/11:30pm 16.4 7.1 13.1 81 1.8 SSE 54 67 29 36 - - 9.6
03/11:00pm 15.6 6.8 13.3 86 1.3 SSE 52 74 28 40 - - 9.6
03/10:30pm 15.5 7.6 12.8 84 1.5 SSE 46 65 25 35 - - 9.6
03/10:22pm 15.8 8.0 13.1 84 1.5 SE 46 67 25 36 - - 9.6
03/10:00pm 15.4 7.1 12.5 83 1.6 SSE 48 63 26 34 - - 9.4
03/09:30pm 15.2 7.6 12.3 83 1.6 SE 44 65 24 35 - - 9.0
03/09:02pm 16.2 7.5 12.7 80 1.9 SSE 50 69 27 37 - - 8.6
03/09:00pm 16.0 7.3 12.6 80 1.9 SSE 50 65 27 35 - - 8.6
03/08:30pm 16.3 7.0 13.2 82 1.7 SSE 54 69 29 37 - - 8.4
03/08:00pm 15.6 6.1 12.4 81 1.8 SSE 54 69 29 37 - - 7.6
03/07:30pm 15.9 6.8 12.6 81 1.8 SSE 52 63 28 34 - - 6.6
03/07:14pm 15.1 6.0 12.4 84 1.5 SSE 52 70 28 38 - - 6.4
03/07:00pm 15.3 5.2 12.2 82 1.7 SSE 57 72 31 39 - - 5.6
03/06:32pm 16.7 6.6 11.6 72 2.8 SSE 56 76 30 41 - - 5.0
03/06:30pm 17.0 7.0 11.9 72 2.8 SSE 56 70 30 38 - - 5.0
03/06:00pm 16.8 7.6 12.3 75 2.5 SSE 52 69 28 37 - - 5.0
03/05:30pm 16.2 6.9 12.0 76 2.3 SSE 52 65 28 35 - - 5.0
03/05:08pm 16.3 7.5 12.1 76 2.3 SSE 50 69 27 37 - - 5.0
03/05:00pm 16.8 7.9 11.9 73 2.7 SSE 50 63 27 34 - - 5.0
03/04:30pm 16.6 7.5 12.6 77 2.2 SSE 52 65 28 35 - - 5.0
03/04:00pm 16.0 6.9 12.4 79 2.0 SSE 52 69 28 37 - - 4.2
03/03:52pm 15.6 9.4 12.7 83 1.6 SSE 37 59 20 32 - - 4.2
03/03:30pm 15.5 6.4 12.4 82 1.7 SSE 52 61 28 33 - - 3.2
03/03:00pm 16.9 7.9 11.6 71 2.9 SSE 50 61 27 33 - - 2.4
03/02:30pm 16.8 8.5 12.5 76 2.4 SSE 48 57 26 31 - - 2.4
03/02:00pm 17.1 9.2 12.6 75 2.5 SSE 46 57 25 31 - - 2.2
03/01:30pm 16.7 8.9 13.0 79 2.1 SSE 46 61 25 33 - - 2.2
03/01:23pm 16.2 8.9 12.9 81 1.8 SSE 43 61 23 33 - - 2.2
03/01:00pm 15.4 7.4 12.3 82 1.7 SE 46 59 25 32 - - 2.2
03/12:30pm 15.1 6.7 12.2 83 1.6 SE 48 61 26 33 - - 2.0
03/12:00pm 16.1 7.8 12.5 79 2.0 SSE 48 61 26 33 - - 0.8
03/11:30am 16.4 7.8 12.8 79 2.0 SSE 50 65 27 35 - - 0.6
03/11:00am 16.9 7.7 12.2 74 2.6 SSE 52 65 28 35 - - 0.6
03/10:30am 16.7 7.7 12.7 77 2.2 SSE 52 69 28 37 - - 0.6
03/10:00am 16.5 7.9 13.0 80 1.9 SSE 50 63 27 34 - - 0.2
03/09:46am 16.2 7.9 12.6 79 2.0 SE 48 67 26 36 - - 0.2
03/09:30am 16.0 7.4 12.9 82 1.7 SE 50 65 27 35 - - 0.2
03/09:00am 16.4 7.8 12.8 79 2.0 SSE 50 61 27 33 - - 110.2
03/08:30am 16.4 7.6 13.3 82 1.7 SE 52 70 28 38 - - 110.2
03/08:04am 16.5 7.3 13.4 82 1.7 SSE 54 72 29 39 - - 109.8
03/08:00am 16.4 7.6 13.3 82 1.7 SSE 52 69 28 37 - - 109.8
03/07:30am 16.3 7.9 13.6 84 1.5 SSE 50 63 27 34 - - 109.8
03/07:00am 15.8 7.8 13.5 86 1.3 SSE 48 61 26 33 - - 109.8
03/06:30am 15.8 7.4 13.5 86 1.3 SSE 50 65 27 35 - - 109.4
03/06:13am 16.1 7.8 13.8 86 1.3 SSE 50 69 27 37 - - 109.2
03/06:00am 16.0 7.4 14.0 88 1.1 SSE 52 67 28 36 - - 109.2
03/05:30am 15.7 6.5 13.4 86 1.3 SSE 54 69 29 37 - - 108.8
03/05:11am 15.7 7.7 13.5 87 1.2 SSE 48 67 26 36 - - 108.4
03/05:00am 15.4 7.3 13.2 87 1.2 SSE 48 61 26 33 - - 108.4
03/04:35am 15.8 8.6 13.8 88 1.1 SSE 44 63 24 34 - - 106.0
03/04:30am 15.1 7.8 12.8 86 1.3 SE 43 56 23 30 - - 106.0
03/04:00am 16.0 7.3 13.7 86 1.3 SSE 52 65 28 35 - - 103.2
03/03:30am 15.9 8.3 13.6 86 1.3 SSE 46 59 25 32 - - 102.4
03/03:00am 16.0 8.4 13.7 86 1.3 SSE 46 59 25 32 - - 100.8
03/02:30am 15.8 8.8 13.8 88 1.1 SSE 43 52 23 28 - - 99.8
03/02:00am 16.0 8.6 14.2 89 1.0 SSE 46 57 25 31 - - 99.2
03/01:30am 15.3 7.7 13.5 89 1.0 SE 46 61 25 33 - - 97.6
03/01:00am 15.7 7.8 13.9 89 1.0 SSE 48 59 26 32 - - 93.8
03/12:31am 15.8 8.3 14.0 89 1.0 SSE 46 67 25 36 - - 91.2
03/12:30am 15.9 8.5 14.1 89 1.0 SSE 46 61 25 33 - - 91.0
03/12:00am 15.5 7.2 13.9 90 0.9 SSE 50 65 27 35 - - 89.0
 
Date/Time
EST
Temp
°C
App
Temp
°C
Dew
Point
°C
Rel
Hum
%
Delta-T
°C
Wind Press
QNH
hPa
Press
MSL
hPa
Rain since
9am
mm
Dir  Spd
km/h
Gust
km/h
Spd
kts
Gust
kts
02/11:48pm 15.2 6.5 13.6 90 0.9 SSE 52 72 28 39 - - 87.2
02/11:30pm 15.9 8.1 14.1 89 1.0 SSE 48 61 26 33 - - 84.0
02/11:00pm 15.8 8.9 14.0 89 1.0 SE 43 56 23 30 - - 80.4
02/10:56pm 15.6 8.4 13.8 89 1.0 SE 44 63 24 34 - - 79.8
02/10:30pm 15.5 7.1 13.5 88 1.1 SSE 50 61 27 33 - - 75.6
02/10:00pm 15.9 7.3 13.9 88 1.1 SSE 52 63 28 34 - - 72.0
02/09:30pm 15.8 7.6 14.0 89 1.0 SSE 50 59 27 32 - - 70.2
02/09:00pm 15.6 6.4 13.3 86 1.3 SSE 54 67 29 36 - - 66.2
02/08:30pm 15.6 6.9 13.8 89 1.0 SSE 52 67 28 36 - - 65.0
02/08:19pm 15.6 6.9 13.6 88 1.1 SSE 52 70 28 38 - - 64.4
02/08:00pm 15.6 7.2 13.6 88 1.1 SSE 50 61 27 33 - - 61.6
02/07:30pm 14.6 4.8 12.6 88 1.1 S 56 69 30 37 - - 59.6
02/07:00pm 15.5 6.6 13.0 85 1.4 SSE 52 63 28 34 - - 55.8
02/06:30pm 15.8 6.3 12.5 81 1.8 SSE 54 67 29 36 - - 53.4
02/06:00pm 16.2 6.6 12.2 77 2.2 SSE 54 67 29 36 - - 51.6
02/05:30pm 16.6 7.6 12.8 78 2.1 SSE 52 65 28 35 - - 51.2
02/05:00pm 16.6 8.1 13.3 81 1.8 SSE 50 59 27 32 - - 50.6
02/04:30pm 16.0 7.2 13.3 84 1.5 SSE 52 65 28 35 - - 50.6
02/04:00pm 15.9 7.5 13.6 86 1.3 SSE 50 63 27 34 - - 49.8
02/03:30pm 15.3 6.8 13.2 87 1.2 SSE 50 65 27 35 - - 48.4
02/03:00pm 15.3 7.2 13.3 88 1.1 SSE 48 59 26 32 - - 46.6
02/02:30pm 15.7 8.7 14.2 91 0.9 SSE 44 57 24 31 - - 45.2
02/02:00pm 15.7 8.3 14.2 91 0.9 SSE 46 54 25 29 - - 43.0
02/01:30pm 15.2 8.0 13.7 91 0.8 SSE 44 56 24 30 - - 39.6
02/01:00pm 15.1 8.1 13.8 92 0.7 SSE 43 63 23 34 - - 36.6
02/12:56pm 14.8 7.1 13.3 91 0.8 SSE 46 65 25 35 - - 36.2
02/12:30pm 15.0 7.0 13.4 90 0.9 SSE 48 63 26 34 - - 30.8
02/12:00pm 14.9 6.1 13.4 91 0.8 S 52 63 28 34 - - 27.6
02/11:31am 14.8 6.0 13.3 91 0.8 SSE 52 72 28 39 - - 24.4
02/11:30am 14.7 6.2 13.2 91 0.8 SSE 50 61 27 33 - - 24.2
02/11:00am 15.1 6.7 13.5 90 0.9 SSE 50 57 27 31 - - 15.6
02/10:30am 15.3 8.1 13.7 90 0.9 SSE 44 52 24 28 - - 11.6
02/10:00am 15.1 6.6 13.3 89 1.0 SSE 50 61 27 33 - - 7.4
02/09:30am 15.5 7.9 13.7 89 1.0 S 46 57 25 31 - - 3.0
02/09:00am 15.4 7.0 13.6 89 1.0 SSE 50 63 27 34 - - 163.2
02/08:55am 15.2 7.8 13.2 88 1.1 SSE 44 63 24 34 - - 162.8
02/08:30am 15.2 8.1 13.4 89 1.0 SSE 43 54 23 29 - - 160.8
02/08:00am 15.2 8.5 13.4 89 1.0 SSE 41 54 22 29 - - 157.8
02/07:30am 15.0 7.3 13.4 90 0.9 SSE 46 57 25 31 - - 156.2
02/07:10am 14.1 9.1 12.3 89 1.0 SSE 30 50 16 27 - - 149.2
02/07:00am 14.4 8.9 12.4 88 1.1 SSE 33 44 18 24 - - 144.8
02/06:54am 14.3 8.9 12.2 87 1.1 SSE 32 44 17 24 - - 143.0
02/06:30am 14.7 7.7 12.6 87 1.1 S 41 54 22 29 - - 139.4
02/06:00am 15.1 7.3 13.1 88 1.1 SSE 46 56 25 30 - - 138.4
02/05:30am 14.8 7.1 13.2 90 0.9 SSE 46 57 25 31 - - 137.6
02/05:00am 14.2 6.2 12.4 89 1.0 S 46 61 25 33 - - 132.8
02/04:30am 15.1 7.5 13.6 91 0.8 SSE 46 59 25 32 - - 129.8
02/04:00am 14.6 7.1 12.8 89 1.0 SSE 44 57 24 31 - - 126.2
02/03:30am 15.2 8.5 13.4 89 1.0 SSE 41 50 22 27 - - 120.2
02/03:00am 14.4 11.1 12.8 90 0.9 SE 22 43 12 23 - - 116.8
02/02:30am 14.4 11.8 13.3 93 0.6 WSW 19 44 10 24 - - 112.4
02/02:00am 12.4 8.4 10.6 89 0.9 SSW 22 32 12 17 - - 103.6
02/01:30am 11.6 9.5 9.9 89 0.9 SW 11 20 6 11 - - 92.2
02/01:00am 12.1 10.5 10.3 89 0.9 NNE 9 28 5 15 - - 75.6
02/12:46am 12.3 6.2 10.5 89 0.9 SW 33 52 18 28 - - 67.8
02/12:39am 12.4 6.0 10.8 90 0.8 WSW 35 52 19 28 - - 67.4
02/12:30am 12.3 7.1 10.4 88 1.0 SW 28 41 15 22 - - 64.6
02/12:00am 12.7 7.7 10.8 88 1.0 SSW 28 43 15 23 - - 50.6
 
Date/Time
EST
Temp
°C
App
Temp
°C
Dew
Point
°C
Rel
Hum
%
Delta-T
°C
Wind Press
QNH
hPa
Press
MSL
hPa
Rain since
9am
mm
Dir  Spd
km/h
Gust
km/h
Spd
kts
Gust
kts
01/11:59pm 12.8 7.7 10.7 87 1.1 SSW 28 43 15 23 - - 50.6
01/11:30pm 13.4 10.6 11.3 87 1.1 SSW 17 24 9 13 - - 44.4
01/11:00pm 13.6 9.4 11.1 85 1.3 SSW 24 39 13 21 - - 31.2
01/10:30pm 15.2 10.6 12.3 83 1.6 S 28 35 15 19 - - 25.4
01/10:00pm 15.1 10.9 12.4 84 1.5 SE 26 37 14 20 - - 25.0
01/09:30pm 14.5 10.1 11.8 84 1.5 ESE 26 35 14 19 - - 23.6
01/09:00pm 14.6 9.2 12.1 85 1.4 SE 32 43 17 23 - - 22.0
01/08:30pm 14.4 10.1 12.1 86 1.2 SE 26 37 14 20 - - 19.6
01/08:00pm 14.9 9.1 12.6 86 1.3 SE 35 46 19 25 - - 15.8

Other formats

Comma delimited format used in spreadsheet applications
http://www.bom.gov.au/fwo/IDN60801/IDN60801.95749.axf

JavaScript Object Notation format (JSON) in row-major order
http://www.bom.gov.au/fwo/IDN60801/IDN60801.95749.json

Data quality

Most of these data are generated automatically and are frequently updated. Quality checks on data are not normally performed. It is possible for incorrect values to appear. Refer to information at About Latest Weather Observations and please check the disclaimer before using these data.